createdAt,value
2024-01-14T00:01:36.722Z,5.65
2024-01-14T00:04:04.576Z,5.22
2024-01-14T00:06:32.370Z,4.68
2024-01-14T00:09:00.124Z,5.13
2024-01-14T00:11:28.021Z,5.85
2024-01-14T00:13:55.749Z,4.85
2024-01-14T00:16:24.820Z,5.32
2024-01-14T00:18:52.738Z,5.30
2024-01-14T00:21:20.528Z,5.32
2024-01-14T00:23:48.386Z,5.95
2024-01-14T00:26:16.149Z,6.47
2024-01-14T00:28:43.857Z,6.68
2024-01-14T00:31:11.850Z,6.70
2024-01-14T00:33:42.040Z,6.70
2024-01-14T00:36:10.369Z,5.97
2024-01-14T00:38:38.687Z,7.35
2024-01-14T00:41:06.507Z,6.47
2024-01-14T00:43:34.214Z,5.13
2024-01-14T00:46:03.621Z,6.68
2024-01-14T00:48:31.601Z,6.10
2024-01-14T00:51:01.033Z,5.35
2024-01-14T00:53:28.784Z,5.75
2024-01-14T00:55:56.508Z,5.18
2024-01-14T00:58:24.296Z,6.25
2024-01-14T01:00:52.048Z,6.45
2024-01-14T01:03:20.053Z,5.18
2024-01-14T01:05:48.013Z,5.97
2024-01-14T01:08:17.155Z,6.57
2024-01-14T01:10:44.947Z,6.55
2024-01-14T01:13:12.689Z,5.97
2024-01-14T01:15:40.459Z,6.07
2024-01-14T01:18:08.370Z,6.00
2024-01-14T01:20:36.189Z,5.75
2024-01-14T01:23:04.197Z,4.15
2024-01-14T01:25:33.316Z,6.07
2024-01-14T01:28:01.010Z,6.35
2024-01-14T01:30:28.793Z,5.45
2024-01-14T01:32:56.737Z,6.22
2024-01-14T01:35:24.649Z,5.90
2024-01-14T01:37:52.364Z,5.20
2024-01-14T01:40:20.053Z,5.68
2024-01-14T01:42:50.950Z,5.55
2024-01-14T01:45:18.717Z,5.07
2024-01-14T01:47:46.817Z,6.20
2024-01-14T01:50:14.551Z,6.05
2024-01-14T01:52:42.616Z,5.72
2024-01-14T01:55:11.959Z,6.55
2024-01-14T01:57:40.411Z,5.80
2024-01-14T02:00:10.964Z,7.05
2024-01-14T02:02:42.762Z,5.40
2024-01-14T02:05:10.878Z,5.93
2024-01-14T02:07:38.672Z,6.90
2024-01-14T02:10:06.801Z,5.85
2024-01-14T02:12:34.527Z,5.35
2024-01-14T02:15:02.305Z,5.88
2024-01-14T02:17:31.519Z,5.25
2024-01-14T02:19:59.332Z,5.25
2024-01-14T02:22:29.687Z,6.50
2024-01-14T02:24:59.033Z,5.80
2024-01-14T02:27:26.957Z,5.88
2024-01-14T02:29:55.755Z,5.55
2024-01-14T02:32:23.586Z,4.30
2024-01-14T02:34:51.301Z,4.22
2024-01-14T02:37:19.006Z,5.55
2024-01-14T02:39:46.732Z,5.10
2024-01-14T02:42:15.935Z,5.22
2024-01-14T02:44:43.763Z,5.85
2024-01-14T02:47:11.591Z,4.85
2024-01-14T02:49:39.346Z,5.72
2024-01-14T02:52:07.084Z,6.72
2024-01-14T02:54:34.820Z,5.72
2024-01-14T02:57:02.594Z,5.25
2024-01-14T02:59:34.064Z,6.25
2024-01-14T03:02:02.399Z,4.72
2024-01-14T03:04:30.197Z,4.00
2024-01-14T03:06:58.125Z,6.25
2024-01-14T03:09:26.122Z,6.28
2024-01-14T03:11:53.877Z,4.65
2024-01-14T03:14:21.654Z,5.10
2024-01-14T03:16:50.766Z,5.47
2024-01-14T03:19:18.560Z,4.85
2024-01-14T03:21:46.389Z,6.10
2024-01-14T03:24:14.161Z,5.70
2024-01-14T03:26:41.901Z,5.38
2024-01-14T03:29:09.599Z,5.82
2024-01-14T03:31:37.362Z,5.63
2024-01-14T03:34:06.649Z,5.90
2024-01-14T03:36:34.457Z,5.80
2024-01-14T03:39:03.791Z,5.97
2024-01-14T03:41:31.596Z,7.35
2024-01-14T03:43:59.305Z,6.65
2024-01-14T03:46:27.103Z,5.28
2024-01-14T03:48:55.025Z,5.10
2024-01-14T03:51:24.319Z,6.30
2024-01-14T03:53:52.131Z,5.88
2024-01-14T03:56:19.879Z,5.78
2024-01-14T03:58:47.659Z,5.38
2024-01-14T04:01:19.171Z,5.35
2024-01-14T04:03:47.243Z,5.25
2024-01-14T04:06:15.118Z,7.07
2024-01-14T04:08:44.312Z,6.95
2024-01-14T04:11:12.002Z,5.53
2024-01-14T04:13:39.673Z,5.35
2024-01-14T04:16:08.695Z,5.88
2024-01-14T04:18:36.844Z,4.85
2024-01-14T04:21:05.290Z,6.03
2024-01-14T04:23:33.156Z,5.53
2024-01-14T04:26:06.948Z,4.70
2024-01-14T04:28:34.656Z,5.70
2024-01-14T04:31:02.509Z,6.18
2024-01-14T04:33:30.554Z,6.32
2024-01-14T04:35:58.423Z,5.72
2024-01-14T04:38:26.097Z,5.93
2024-01-14T04:40:53.795Z,5.40
2024-01-14T04:43:22.865Z,5.13
2024-01-14T04:45:50.585Z,5.97
2024-01-14T04:48:18.454Z,4.82
2024-01-14T04:50:46.260Z,5.60
2024-01-14T04:53:14.008Z,4.55
2024-01-14T04:55:41.764Z,5.68
2024-01-14T04:58:09.464Z,4.65
2024-01-14T05:00:38.762Z,4.97
2024-01-14T05:03:06.643Z,4.80
2024-01-14T05:05:34.416Z,4.47
2024-01-14T05:08:02.765Z,6.07
2024-01-14T05:10:30.761Z,6.63
2024-01-14T05:12:58.666Z,4.38
2024-01-14T05:15:26.451Z,6.22
2024-01-14T05:17:55.776Z,5.57
2024-01-14T05:20:23.932Z,5.38
2024-01-14T05:22:51.693Z,5.82
2024-01-14T05:25:19.399Z,5.10
2024-01-14T05:27:47.092Z,4.97
2024-01-14T05:30:15.599Z,5.25
2024-01-14T05:32:43.423Z,5.63
2024-01-14T05:35:12.531Z,5.63
2024-01-14T05:37:40.220Z,6.45
2024-01-14T05:40:08.850Z,6.75
2024-01-14T05:42:36.607Z,5.72
2024-01-14T05:45:04.521Z,3.78
2024-01-14T05:47:32.275Z,5.35
2024-01-14T05:50:01.052Z,5.43
2024-01-14T05:52:30.237Z,5.45
2024-01-14T05:54:58.123Z,5.15
2024-01-14T05:57:25.947Z,5.68
2024-01-14T05:59:53.752Z,5.10
2024-01-14T06:02:21.785Z,4.95
2024-01-14T06:04:49.661Z,4.63
2024-01-14T06:07:17.498Z,5.82
2024-01-14T06:09:46.661Z,6.55
2024-01-14T06:12:14.488Z,2.70
2024-01-14T06:14:42.300Z,4.28
2024-01-14T06:17:10.268Z,4.38
2024-01-14T06:19:38.112Z,5.63
2024-01-14T06:22:05.956Z,5.53
2024-01-14T06:24:33.767Z,5.65
2024-01-14T06:27:03.779Z,5.45
2024-01-14T06:29:31.557Z,6.05
2024-01-14T06:31:59.929Z,5.53
2024-01-14T06:34:27.732Z,5.25
2024-01-14T06:36:55.467Z,4.78
2024-01-14T06:39:23.207Z,5.10
2024-01-14T06:41:51.491Z,5.30
2024-01-14T06:44:20.575Z,4.97
2024-01-14T06:46:49.332Z,5.15
2024-01-14T06:49:17.280Z,5.60
2024-01-14T06:51:45.549Z,5.07
2024-01-14T06:54:13.441Z,5.32
2024-01-14T06:56:45.258Z,4.57
2024-01-14T06:59:14.644Z,4.35
2024-01-14T07:01:43.889Z,4.50
2024-01-14T07:04:11.678Z,5.32
2024-01-14T07:06:39.471Z,5.05
2024-01-14T07:09:09.713Z,5.30
2024-01-14T07:11:37.615Z,5.53
2024-01-14T07:14:05.327Z,5.38
2024-01-14T07:16:33.084Z,4.95
2024-01-14T07:19:02.527Z,5.28
2024-01-14T07:21:30.779Z,5.00
2024-01-14T07:23:58.555Z,4.88
2024-01-14T07:26:26.264Z,5.35
2024-01-14T07:28:54.656Z,5.20
2024-01-14T07:31:23.589Z,4.95
2024-01-14T07:33:52.708Z,6.40
2024-01-14T07:36:22.714Z,5.03
2024-01-14T07:38:51.961Z,5.22
2024-01-14T07:41:19.846Z,5.18
2024-01-14T07:43:47.612Z,4.88
2024-01-14T07:46:15.531Z,4.60
2024-01-14T07:48:43.968Z,4.82
2024-01-14T07:51:12.105Z,5.25
2024-01-14T07:53:41.216Z,5.97
2024-01-14T07:56:09.274Z,4.53
2024-01-14T07:58:36.962Z,4.45
2024-01-14T08:01:04.953Z,5.47
2024-01-14T08:03:33.149Z,4.43
2024-01-14T08:06:01.759Z,5.85
2024-01-14T08:08:29.757Z,5.25
2024-01-14T08:10:58.840Z,4.85
2024-01-14T08:13:27.140Z,4.88
2024-01-14T08:16:01.460Z,5.38
2024-01-14T08:18:32.369Z,5.18
2024-01-14T08:21:01.086Z,5.95
2024-01-14T08:23:30.713Z,5.65
2024-01-14T08:25:59.798Z,4.80
2024-01-14T08:28:27.450Z,5.18
2024-01-14T08:30:55.276Z,5.35
2024-01-14T08:33:23.233Z,5.53
2024-01-14T08:35:51.070Z,6.32
2024-01-14T08:38:18.796Z,5.10
2024-01-14T08:40:46.469Z,4.90
2024-01-14T08:43:15.612Z,5.75
2024-01-14T08:45:43.364Z,4.45
2024-01-14T08:48:11.878Z,6.00
2024-01-14T08:50:39.876Z,5.57
2024-01-14T08:53:07.575Z,5.63
2024-01-14T08:55:35.287Z,5.57
2024-01-14T08:58:03.020Z,5.80
2024-01-14T09:00:32.189Z,4.75
2024-01-14T09:02:59.998Z,5.90
2024-01-14T09:05:27.758Z,5.53
2024-01-14T09:07:55.537Z,5.28
2024-01-14T09:10:23.292Z,4.50
2024-01-14T09:12:51.070Z,4.03
2024-01-14T09:15:18.845Z,4.40
2024-01-14T09:17:48.061Z,5.68
2024-01-14T09:20:16.114Z,6.22
2024-01-14T09:22:43.953Z,5.35
2024-01-14T09:25:13.442Z,5.22
2024-01-14T09:27:41.533Z,5.53
2024-01-14T09:30:09.969Z,7.47
2024-01-14T09:32:37.818Z,4.40
2024-01-14T09:35:07.852Z,4.60
2024-01-14T09:37:35.547Z,4.65
2024-01-14T09:40:03.259Z,5.15
2024-01-14T09:42:35.697Z,5.45
2024-01-14T09:45:05.619Z,5.47
2024-01-14T09:47:34.040Z,4.50
2024-01-14T09:50:02.589Z,5.05
2024-01-14T09:52:32.954Z,5.45
2024-01-14T09:55:00.831Z,4.90
2024-01-14T09:57:30.768Z,4.90
2024-01-14T10:00:00.987Z,4.80
2024-01-14T10:02:28.973Z,4.55
2024-01-14T10:04:56.895Z,5.10
2024-01-14T10:07:25.210Z,5.13
2024-01-14T10:09:54.834Z,5.20
2024-01-14T10:12:22.723Z,5.10
2024-01-14T10:14:58.350Z,5.20
2024-01-14T10:17:26.134Z,4.68
2024-01-14T10:19:54.247Z,5.95
2024-01-14T10:22:21.705Z,5.25
2024-01-14T10:24:54.175Z,5.43
2024-01-14T10:27:34.274Z,4.72
2024-01-14T10:30:05.905Z,5.70
2024-01-14T10:33:14.904Z,5.03
2024-01-14T10:35:21.798Z,5.45
2024-01-14T10:37:49.947Z,5.85
2024-01-14T10:40:19.602Z,6.55
2024-01-14T10:42:48.718Z,5.40
2024-01-14T10:45:16.676Z,5.30
2024-01-14T10:47:47.710Z,4.97
2024-01-14T10:50:18.949Z,5.50
2024-01-14T10:52:50.651Z,6.63
2024-01-14T10:55:29.510Z,6.53
2024-01-14T10:57:58.882Z,6.15
2024-01-14T11:00:26.754Z,6.68
2024-01-14T11:02:55.123Z,6.07
2024-01-14T11:05:23.364Z,5.97
2024-01-14T11:07:51.773Z,7.18
2024-01-14T11:10:20.992Z,6.85
2024-01-14T11:12:50.971Z,7.63
2024-01-14T11:15:23.130Z,8.15
2024-01-14T11:17:55.908Z,7.38
2024-01-14T11:20:29.156Z,8.25
2024-01-14T11:22:59.470Z,7.65
2024-01-14T11:25:34.394Z,8.00
2024-01-14T11:28:03.051Z,8.05
2024-01-14T11:30:49.595Z,7.38
2024-01-14T11:33:30.769Z,7.18
2024-01-14T11:35:58.972Z,6.75
2024-01-14T11:38:36.523Z,7.05
2024-01-14T11:41:22.986Z,7.60
2024-01-14T11:43:52.236Z,6.82
2024-01-14T11:46:41.646Z,6.68
2024-01-14T11:49:17.081Z,6.97
2024-01-14T11:51:58.406Z,6.97
2024-01-14T11:54:27.681Z,8.32
2024-01-14T11:56:55.910Z,8.63
2024-01-14T11:59:34.894Z,8.32
2024-01-14T12:02:16.104Z,8.18
2024-01-14T12:04:45.695Z,8.02
2024-01-14T12:07:21.387Z,8.60
2024-01-14T12:09:53.532Z,8.80
2024-01-14T12:12:21.315Z,8.35
2024-01-14T12:14:50.462Z,7.82
2024-01-14T12:17:18.146Z,8.43
2024-01-14T12:19:57.040Z,9.23
2024-01-14T12:22:25.011Z,8.65
2024-01-14T12:24:52.753Z,8.25
2024-01-14T12:27:20.448Z,7.90
2024-01-14T12:29:48.434Z,7.53
2024-01-14T12:32:18.560Z,7.85
2024-01-14T12:34:46.539Z,8.88
2024-01-14T12:37:14.619Z,7.57
2024-01-14T12:39:42.664Z,8.18
2024-01-14T12:42:12.940Z,8.73
2024-01-14T12:44:43.712Z,8.10
2024-01-14T12:47:11.497Z,7.88
2024-01-14T12:49:40.801Z,8.52
2024-01-14T12:52:09.247Z,7.63
2024-01-14T12:54:37.462Z,7.30
2024-01-14T12:57:16.280Z,7.75
2024-01-14T12:59:48.210Z,7.53
2024-01-14T13:02:16.108Z,7.88
2024-01-14T13:04:45.232Z,7.60
2024-01-14T13:07:14.002Z,7.47
2024-01-14T13:09:42.853Z,8.07
2024-01-14T13:12:10.921Z,8.05
2024-01-14T13:14:38.662Z,8.23
2024-01-14T13:17:06.406Z,7.32
2024-01-14T13:19:34.231Z,7.80
2024-01-14T13:22:03.470Z,8.45
2024-01-14T13:24:31.882Z,7.97
2024-01-14T13:27:00.004Z,8.25
2024-01-14T13:29:27.904Z,8.32
2024-01-14T13:31:55.749Z,7.85
2024-01-14T13:34:24.071Z,7.47
2024-01-14T13:36:51.920Z,8.25
2024-01-14T13:39:21.119Z,7.72
2024-01-14T13:41:48.981Z,7.00
2024-01-14T13:44:18.399Z,8.00
2024-01-14T13:46:47.472Z,7.40
2024-01-14T13:49:16.066Z,6.82
2024-01-14T13:51:44.114Z,7.45
2024-01-14T13:54:14.392Z,7.45
2024-01-14T13:56:45.433Z,7.80
2024-01-14T13:59:13.523Z,7.53
2024-01-14T14:01:41.690Z,6.50
2024-01-14T14:04:10.450Z,5.85
2024-01-14T14:06:39.554Z,6.68
2024-01-14T14:09:09.214Z,5.55
2024-01-14T14:11:37.690Z,6.03
2024-01-14T14:14:07.094Z,6.78
2024-01-14T14:16:40.372Z,6.10
2024-01-14T14:19:11.695Z,5.85
2024-01-14T14:21:51.208Z,5.57
2024-01-14T14:24:26.637Z,6.07
2024-01-14T14:26:54.649Z,4.70
2024-01-14T14:29:25.851Z,6.22
2024-01-14T14:31:55.452Z,6.40
2024-01-14T14:34:24.332Z,5.57
2024-01-14T14:36:52.241Z,4.57
2024-01-14T14:39:20.332Z,4.72
2024-01-14T14:41:48.661Z,5.68
2024-01-14T14:44:16.632Z,4.13
2024-01-14T14:46:45.882Z,4.57
2024-01-14T14:49:13.992Z,5.50
2024-01-14T14:51:42.581Z,4.28
2024-01-14T14:54:11.251Z,4.55
2024-01-14T14:56:39.869Z,5.63
2024-01-14T14:59:07.721Z,3.63
2024-01-14T15:01:42.627Z,4.38
2024-01-14T15:04:15.857Z,5.38
2024-01-14T15:06:45.139Z,4.43
2024-01-14T15:09:13.929Z,5.03
2024-01-14T15:11:42.459Z,4.65
2024-01-14T15:14:11.041Z,4.75
2024-01-14T15:16:39.085Z,4.18
2024-01-14T15:19:07.170Z,5.00
2024-01-14T15:21:36.532Z,3.40
2024-01-14T15:24:04.741Z,3.92
2024-01-14T15:26:32.785Z,4.03
2024-01-14T15:29:03.523Z,5.53
2024-01-14T15:31:31.436Z,5.38
2024-01-14T15:33:59.787Z,5.05
2024-01-14T15:36:28.284Z,4.70
2024-01-14T15:38:57.578Z,4.55
2024-01-14T15:41:26.286Z,4.22
2024-01-14T15:43:54.069Z,4.03
2024-01-14T15:46:21.772Z,3.63
2024-01-14T15:48:49.998Z,3.60
2024-01-14T15:51:18.712Z,4.43
2024-01-14T15:53:46.626Z,4.80
2024-01-14T15:56:15.705Z,4.38
2024-01-14T15:58:43.459Z,3.58
2024-01-14T16:01:13.706Z,4.45
2024-01-14T16:03:45.487Z,4.72
2024-01-14T16:06:15.644Z,4.00
2024-01-14T16:08:44.795Z,3.28
2024-01-14T16:11:12.578Z,4.82
2024-01-14T16:13:41.663Z,4.25
2024-01-14T16:16:09.680Z,4.70
2024-01-14T16:18:37.649Z,5.30
2024-01-14T16:21:07.570Z,4.70
2024-01-14T16:23:37.585Z,4.80
2024-01-14T16:26:06.549Z,4.18
2024-01-14T16:28:34.299Z,3.70
2024-01-14T16:31:11.827Z,3.40
2024-01-14T16:33:43.349Z,3.75
2024-01-14T16:36:12.233Z,3.88
2024-01-14T16:38:40.110Z,4.13
2024-01-14T16:41:08.898Z,5.10
2024-01-14T16:43:37.655Z,5.55
2024-01-14T16:46:07.172Z,4.65
2024-01-14T16:48:35.669Z,4.22
2024-01-14T16:51:08.875Z,4.40
2024-01-14T16:53:39.885Z,3.83
2024-01-14T16:56:08.547Z,3.30
2024-01-14T16:58:36.513Z,3.50
2024-01-14T17:01:14.875Z,4.75
2024-01-14T17:03:46.445Z,4.28
2024-01-14T17:06:16.433Z,4.15
2024-01-14T17:08:45.378Z,3.83
2024-01-14T17:11:15.075Z,4.82
2024-01-14T17:13:43.311Z,3.65
2024-01-14T17:16:21.201Z,4.55
2024-01-14T17:18:49.463Z,3.50
2024-01-14T17:21:18.265Z,3.97
2024-01-14T17:23:46.412Z,4.70
2024-01-14T17:26:14.113Z,3.78
2024-01-14T17:28:42.447Z,4.40
2024-01-14T17:31:13.104Z,3.53
2024-01-14T17:33:43.882Z,4.47
2024-01-14T17:36:12.058Z,4.20
2024-01-14T17:38:40.107Z,3.97
2024-01-14T17:41:09.935Z,3.83
2024-01-14T17:43:37.691Z,3.95
2024-01-14T17:46:08.395Z,3.75
2024-01-14T17:48:37.737Z,4.43
2024-01-14T17:51:08.645Z,5.22
2024-01-14T17:53:36.705Z,5.80
2024-01-14T17:56:04.872Z,5.03
2024-01-14T17:58:32.585Z,5.30
2024-01-14T18:01:02.690Z,5.75
2024-01-14T18:03:30.922Z,5.70
2024-01-14T18:05:59.433Z,5.40
2024-01-14T18:08:28.646Z,6.28
2024-01-14T18:10:56.321Z,7.57
2024-01-14T18:13:24.120Z,7.65
2024-01-14T18:15:51.936Z,7.35
2024-01-14T18:18:19.973Z,7.97
2024-01-14T18:20:48.423Z,8.32
2024-01-14T18:23:16.201Z,8.43
2024-01-14T18:25:46.142Z,8.90
2024-01-14T18:28:14.748Z,9.68
2024-01-14T18:30:42.724Z,8.25
2024-01-14T18:33:13.451Z,9.00
2024-01-14T18:35:43.981Z,9.52
2024-01-14T18:38:13.703Z,9.20
2024-01-14T18:40:41.833Z,9.32
2024-01-14T18:43:11.006Z,10.27
2024-01-14T18:45:39.068Z,9.80
2024-01-14T18:48:08.159Z,9.90
2024-01-14T18:50:36.861Z,9.88
2024-01-14T18:53:05.729Z,11.13
2024-01-14T18:55:35.378Z,9.57
2024-01-14T18:58:03.401Z,10.27
2024-01-14T19:00:32.597Z,10.57
2024-01-14T19:03:00.597Z,10.57
2024-01-14T19:05:28.566Z,11.82
2024-01-14T19:07:57.441Z,10.10
2024-01-14T19:10:26.706Z,11.30
2024-01-14T19:12:56.970Z,11.45
2024-01-14T19:15:25.142Z,11.15
2024-01-14T19:17:54.327Z,10.82
2024-01-14T19:20:22.190Z,10.40
2024-01-14T19:22:49.962Z,10.50
2024-01-14T19:25:17.770Z,10.75
2024-01-14T19:27:45.692Z,10.93
2024-01-14T19:30:13.900Z,10.63
2024-01-14T19:32:41.749Z,10.95
2024-01-14T19:35:11.163Z,10.82
2024-01-14T19:37:38.838Z,10.93
2024-01-14T19:40:07.073Z,11.88
2024-01-14T19:42:34.966Z,10.65
2024-01-14T19:45:02.770Z,10.85
2024-01-14T19:47:31.077Z,11.15
2024-01-14T19:49:58.958Z,10.27
2024-01-14T19:52:28.122Z,10.52
2024-01-14T19:54:55.938Z,10.57
2024-01-14T19:57:23.749Z,11.20
2024-01-14T19:59:51.950Z,10.48
2024-01-14T20:02:19.657Z,5.75
2024-01-14T20:04:47.372Z,6.53
2024-01-14T20:07:15.117Z,5.43
2024-01-14T20:09:44.268Z,5.22
2024-01-14T20:12:12.088Z,4.53
2024-01-14T20:14:43.219Z,5.72
2024-01-14T20:17:12.742Z,6.05
2024-01-14T20:19:40.635Z,4.65
2024-01-14T20:22:08.429Z,5.15
2024-01-14T20:24:39.889Z,5.22
2024-01-14T20:27:09.427Z,6.20
2024-01-14T20:29:37.743Z,4.30
2024-01-14T20:32:05.649Z,5.95
2024-01-14T20:34:33.544Z,5.70
2024-01-14T20:37:01.417Z,5.55
2024-01-14T20:39:32.213Z,6.30
2024-01-14T20:42:02.978Z,5.22
2024-01-14T20:44:32.393Z,4.95
2024-01-14T20:47:01.421Z,5.03
2024-01-14T20:49:29.401Z,4.60
2024-01-14T20:51:57.193Z,5.35
2024-01-14T20:54:25.177Z,4.22
2024-01-14T20:56:52.900Z,4.65
2024-01-14T20:59:20.665Z,5.00
2024-01-14T21:01:49.762Z,4.93
2024-01-14T21:04:17.643Z,5.15
2024-01-14T21:06:45.478Z,4.80
2024-01-14T21:09:14.134Z,4.00
2024-01-14T21:11:42.053Z,4.60
2024-01-14T21:14:09.770Z,4.70
2024-01-14T21:16:38.568Z,4.30
2024-01-14T21:19:08.767Z,4.28
2024-01-14T21:21:36.654Z,5.80
2024-01-14T21:24:04.581Z,5.57
2024-01-14T21:26:32.362Z,4.63
2024-01-14T21:29:02.452Z,4.10
2024-01-14T21:31:30.276Z,4.70
2024-01-14T21:33:58.293Z,4.43
2024-01-14T21:36:27.819Z,4.28
2024-01-14T21:38:55.550Z,3.58
2024-01-14T21:41:23.287Z,4.38
2024-01-14T21:43:50.990Z,4.75
2024-01-14T21:46:18.697Z,3.72
2024-01-14T21:48:46.544Z,3.63
2024-01-14T21:51:14.362Z,3.97
2024-01-14T21:53:43.470Z,4.95
2024-01-14T21:56:11.254Z,4.70
2024-01-14T21:58:38.991Z,3.97
2024-01-14T22:01:06.873Z,4.32
2024-01-14T22:03:34.752Z,5.05
2024-01-14T22:06:04.368Z,4.43
2024-01-14T22:08:34.142Z,4.68
2024-01-14T22:11:03.285Z,3.67
2024-01-14T22:13:31.058Z,4.15
2024-01-14T22:15:58.895Z,4.05
2024-01-14T22:18:26.896Z,3.70
2024-01-14T22:20:54.757Z,3.53
2024-01-14T22:23:22.588Z,4.63
2024-01-14T22:25:50.301Z,3.97
2024-01-14T22:28:21.470Z,4.28
2024-01-14T22:30:49.444Z,4.05
2024-01-14T22:33:17.354Z,4.85
2024-01-14T22:35:45.179Z,4.13
2024-01-14T22:38:13.404Z,3.25
2024-01-14T22:40:42.587Z,4.82
2024-01-14T22:43:10.361Z,3.67
2024-01-14T22:45:39.892Z,3.80
2024-01-14T22:48:07.989Z,3.85
2024-01-14T22:50:35.860Z,4.45
2024-01-14T22:53:03.597Z,3.80
2024-01-14T22:55:31.286Z,3.55
2024-01-14T22:57:58.994Z,3.90
2024-01-14T23:00:29.038Z,3.35
2024-01-14T23:02:58.238Z,3.60
2024-01-14T23:05:25.959Z,3.38
2024-01-14T23:07:53.693Z,2.95
2024-01-14T23:10:21.391Z,4.57
2024-01-14T23:12:49.154Z,3.15
2024-01-14T23:15:17.325Z,3.53
2024-01-14T23:17:45.146Z,3.38
2024-01-14T23:20:14.815Z,2.92
2024-01-14T23:22:42.543Z,3.40
2024-01-14T23:25:11.207Z,3.92
2024-01-14T23:27:40.804Z,3.17
2024-01-14T23:30:10.374Z,3.17
2024-01-14T23:32:38.174Z,2.88
2024-01-14T23:35:06.225Z,3.60
2024-01-14T23:37:35.364Z,2.70
2024-01-14T23:40:03.119Z,3.15
2024-01-14T23:42:30.874Z,3.45
2024-01-14T23:44:58.600Z,3.45
2024-01-14T23:47:26.329Z,2.42
2024-01-14T23:49:54.091Z,2.80
2024-01-14T23:52:21.814Z,3.90
2024-01-14T23:54:51.041Z,2.33
2024-01-14T23:57:18.897Z,3.42
2024-01-14T23:59:47.175Z,2.95
